sensor_id;sensor_type;location;lat;lon;timestamp;P1;durP1;ratioP1;P2;durP2;ratioP2
21941;SDS011;11135;54.192;15.670;2024-03-23T00:55:06;9.70;;;2.40;;
21941;SDS011;11135;54.192;15.670;2024-03-23T00:58:29;15.02;;;2.60;;
21941;SDS011;11135;54.192;15.670;2024-03-23T01:01:54;16.60;;;2.70;;
21941;SDS011;11135;54.192;15.670;2024-03-23T01:05:15;8.30;;;1.95;;
21941;SDS011;11135;54.192;15.670;2024-03-23T01:08:37;14.40;;;3.10;;
21941;SDS011;11135;54.192;15.670;2024-03-23T01:11:59;9.63;;;2.80;;
21941;SDS011;11135;54.192;15.670;2024-03-23T01:15:20;13.85;;;2.75;;
21941;SDS011;11135;54.192;15.670;2024-03-23T01:18:45;15.13;;;2.67;;
21941;SDS011;11135;54.192;15.670;2024-03-23T01:22:07;9.63;;;2.75;;
21941;SDS011;11135;54.192;15.670;2024-03-23T01:25:28;10.10;;;2.13;;
21941;SDS011;11135;54.192;15.670;2024-03-23T01:28:50;17.90;;;2.80;;
21941;SDS011;11135;54.192;15.670;2024-03-23T01:32:12;12.73;;;2.83;;
21941;SDS011;11135;54.192;15.670;2024-03-23T01:35:36;16.38;;;3.10;;
21941;SDS011;11135;54.192;15.670;2024-03-23T01:38:58;14.98;;;2.63;;
21941;SDS011;11135;54.192;15.670;2024-03-23T01:42:20;13.20;;;3.90;;
21941;SDS011;11135;54.192;15.670;2024-03-23T01:45:42;17.23;;;3.27;;
21941;SDS011;11135;54.192;15.670;2024-03-23T01:49:03;14.10;;;2.42;;
21941;SDS011;11135;54.192;15.670;2024-03-23T01:52:28;15.35;;;2.55;;
21941;SDS011;11135;54.192;15.670;2024-03-23T01:55:50;16.33;;;3.65;;
21941;SDS011;11135;54.192;15.670;2024-03-23T01:59:12;19.02;;;3.22;;
21941;SDS011;11135;54.192;15.670;2024-03-23T02:02:34;10.10;;;3.65;;
21941;SDS011;11135;54.192;15.670;2024-03-23T02:05:56;9.93;;;2.15;;
21941;SDS011;11135;54.192;15.670;2024-03-23T02:09:20;6.90;;;1.98;;
21941;SDS011;11135;54.192;15.670;2024-03-23T02:12:42;18.15;;;2.97;;
21941;SDS011;11135;54.192;15.670;2024-03-23T02:16:04;22.13;;;3.38;;
21941;SDS011;11135;54.192;15.670;2024-03-23T02:19:26;13.13;;;2.55;;
21941;SDS011;11135;54.192;15.670;2024-03-23T02:22:53;15.65;;;3.08;;
21941;SDS011;11135;54.192;15.670;2024-03-23T02:26:15;12.45;;;2.53;;
21941;SDS011;11135;54.192;15.670;2024-03-23T02:29:37;11.40;;;2.70;;
21941;SDS011;11135;54.192;15.670;2024-03-23T02:32:58;13.15;;;2.75;;
21941;SDS011;11135;54.192;15.670;2024-03-23T02:36:20;13.77;;;3.50;;
21941;SDS011;11135;54.192;15.670;2024-03-23T02:39:44;15.32;;;2.63;;
21941;SDS011;11135;54.192;15.670;2024-03-23T02:43:06;11.52;;;2.35;;
21941;SDS011;11135;54.192;15.670;2024-03-23T02:46:28;14.82;;;3.30;;
21941;SDS011;11135;54.192;15.670;2024-03-23T02:49:50;16.43;;;4.40;;
21941;SDS011;11135;54.192;15.670;2024-03-23T02:53:12;16.48;;;3.83;;
21941;SDS011;11135;54.192;15.670;2024-03-23T02:56:36;23.37;;;3.80;;
21941;SDS011;11135;54.192;15.670;2024-03-23T02:59:58;17.38;;;3.67;;
21941;SDS011;11135;54.192;15.670;2024-03-23T03:03:20;14.13;;;3.13;;
21941;SDS011;11135;54.192;15.670;2024-03-23T03:06:41;13.07;;;3.08;;
21941;SDS011;11135;54.192;15.670;2024-03-23T03:10:03;15.13;;;3.17;;
21941;SDS011;11135;54.192;15.670;2024-03-23T03:13:27;16.50;;;3.40;;
21941;SDS011;11135;54.192;15.670;2024-03-23T03:16:49;20.20;;;3.15;;
21941;SDS011;11135;54.192;15.670;2024-03-23T03:20:11;9.77;;;3.30;;
21941;SDS011;11135;54.192;15.670;2024-03-23T03:23:33;17.37;;;2.43;;
21941;SDS011;11135;54.192;15.670;2024-03-23T03:26:54;19.67;;;3.25;;
21941;SDS011;11135;54.192;15.670;2024-03-23T03:30:19;16.73;;;4.20;;
21941;SDS011;11135;54.192;15.670;2024-03-23T03:33:41;11.40;;;2.47;;
21941;SDS011;11135;54.192;15.670;2024-03-23T03:37:02;16.35;;;3.53;;
21941;SDS011;11135;54.192;15.670;2024-03-23T03:40:24;19.50;;;3.57;;
21941;SDS011;11135;54.192;15.670;2024-03-23T03:43:46;13.23;;;2.42;;
21941;SDS011;11135;54.192;15.670;2024-03-23T03:47:10;18.07;;;3.80;;
21941;SDS011;11135;54.192;15.670;2024-03-23T03:50:32;15.32;;;3.78;;
21941;SDS011;11135;54.192;15.670;2024-03-23T03:53:54;20.73;;;5.87;;
21941;SDS011;11135;54.192;15.670;2024-03-23T03:57:15;16.97;;;3.53;;
21941;SDS011;11135;54.192;15.670;2024-03-23T04:00:37;18.52;;;3.75;;
21941;SDS011;11135;54.192;15.670;2024-03-23T04:04:01;12.13;;;2.93;;
21941;SDS011;11135;54.192;15.670;2024-03-23T04:07:23;21.30;;;2.97;;
21941;SDS011;11135;54.192;15.670;2024-03-23T04:10:45;16.25;;;3.13;;
21941;SDS011;11135;54.192;15.670;2024-03-23T04:14:07;16.30;;;3.10;;
21941;SDS011;11135;54.192;15.670;2024-03-23T04:17:28;18.27;;;3.20;;
21941;SDS011;11135;54.192;15.670;2024-03-23T04:20:53;18.63;;;3.17;;
21941;SDS011;11135;54.192;15.670;2024-03-23T04:24:15;14.68;;;3.15;;
21941;SDS011;11135;54.192;15.670;2024-03-23T04:27:37;20.63;;;3.73;;
21941;SDS011;11135;54.192;15.670;2024-03-23T04:31:00;19.35;;;3.00;;
21941;SDS011;11135;54.192;15.670;2024-03-23T04:34:24;18.75;;;3.40;;
21941;SDS011;11135;54.192;15.670;2024-03-23T04:37:48;17.80;;;3.13;;
21941;SDS011;11135;54.192;15.670;2024-03-23T04:41:11;16.48;;;3.38;;
21941;SDS011;11135;54.192;15.670;2024-03-23T04:44:32;15.63;;;2.45;;
21941;SDS011;11135;54.192;15.670;2024-03-23T04:47:54;18.27;;;3.20;;
21941;SDS011;11135;54.192;15.670;2024-03-23T04:51:22;15.52;;;3.72;;
21941;SDS011;11135;54.192;15.670;2024-03-23T04:54:46;17.65;;;4.00;;
21941;SDS011;11135;54.192;15.670;2024-03-23T04:58:08;19.30;;;3.42;;
21941;SDS011;11135;54.192;15.670;2024-03-23T05:01:30;15.82;;;3.30;;
21941;SDS011;11135;54.192;15.670;2024-03-23T05:04:52;22.13;;;4.47;;
21941;SDS011;11135;54.192;15.670;2024-03-23T05:08:14;23.05;;;3.67;;
21941;SDS011;11135;54.192;15.670;2024-03-23T05:11:38;22.47;;;3.73;;
21941;SDS011;11135;54.192;15.670;2024-03-23T05:15:00;21.38;;;3.47;;
21941;SDS011;11135;54.192;15.670;2024-03-23T05:18:22;14.70;;;3.30;;
21941;SDS011;11135;54.192;15.670;2024-03-23T05:21:43;21.42;;;3.60;;
21941;SDS011;11135;54.192;15.670;2024-03-23T05:25:05;22.43;;;3.87;;
21941;SDS011;11135;54.192;15.670;2024-03-23T05:28:30;12.98;;;3.13;;
21941;SDS011;11135;54.192;15.670;2024-03-23T05:31:51;15.02;;;3.42;;
21941;SDS011;11135;54.192;15.670;2024-03-23T05:35:13;25.13;;;3.78;;
21941;SDS011;11135;54.192;15.670;2024-03-23T05:38:35;15.60;;;2.93;;
21941;SDS011;11135;54.192;15.670;2024-03-23T05:41:57;13.52;;;2.70;;
21941;SDS011;11135;54.192;15.670;2024-03-23T05:45:21;20.93;;;3.23;;
21941;SDS011;11135;54.192;15.670;2024-03-23T05:48:43;12.45;;;2.38;;
21941;SDS011;11135;54.192;15.670;2024-03-23T05:52:05;15.10;;;3.40;;
21941;SDS011;11135;54.192;15.670;2024-03-23T05:55:27;13.27;;;2.92;;
21941;SDS011;11135;54.192;15.670;2024-03-23T05:58:49;10.85;;;2.83;;
21941;SDS011;11135;54.192;15.670;2024-03-23T06:02:14;12.33;;;2.57;;
21941;SDS011;11135;54.192;15.670;2024-03-23T06:05:35;13.73;;;2.85;;
21941;SDS011;11135;54.192;15.670;2024-03-23T06:08:57;19.60;;;2.90;;
21941;SDS011;11135;54.192;15.670;2024-03-23T06:12:19;14.38;;;3.22;;
21941;SDS011;11135;54.192;15.670;2024-03-23T06:15:41;19.23;;;3.08;;
21941;SDS011;11135;54.192;15.670;2024-03-23T06:19:05;18.73;;;3.45;;
21941;SDS011;11135;54.192;15.670;2024-03-23T06:22:27;12.20;;;2.67;;
21941;SDS011;11135;54.192;15.670;2024-03-23T06:25:48;14.55;;;2.95;;
21941;SDS011;11135;54.192;15.670;2024-03-23T06:29:10;18.20;;;3.23;;
21941;SDS011;11135;54.192;15.670;2024-03-23T06:32:32;13.93;;;3.58;;
21941;SDS011;11135;54.192;15.670;2024-03-23T06:35:56;13.00;;;2.73;;
21941;SDS011;11135;54.192;15.670;2024-03-23T06:39:18;13.07;;;3.85;;
21941;SDS011;11135;54.192;15.670;2024-03-23T06:42:40;15.15;;;3.72;;
21941;SDS011;11135;54.192;15.670;2024-03-23T06:46:02;15.63;;;3.93;;
21941;SDS011;11135;54.192;15.670;2024-03-23T06:49:25;15.30;;;3.33;;
21941;SDS011;11135;54.192;15.670;2024-03-23T06:52:49;23.88;;;4.65;;
21941;SDS011;11135;54.192;15.670;2024-03-23T06:56:11;19.90;;;4.25;;
21941;SDS011;11135;54.192;15.670;2024-03-23T06:59:33;19.70;;;4.93;;
21941;SDS011;11135;54.192;15.670;2024-03-23T07:02:55;21.53;;;3.50;;
21941;SDS011;11135;54.192;15.670;2024-03-23T07:06:16;14.43;;;4.38;;
21941;SDS011;11135;54.192;15.670;2024-03-23T07:09:41;14.93;;;3.10;;
21941;SDS011;11135;54.192;15.670;2024-03-23T07:13:03;21.13;;;3.40;;
21941;SDS011;11135;54.192;15.670;2024-03-23T07:16:26;21.98;;;2.90;;
21941;SDS011;11135;54.192;15.670;2024-03-23T07:19:48;18.38;;;3.85;;
21941;SDS011;11135;54.192;15.670;2024-03-23T07:23:09;12.80;;;2.90;;
21941;SDS011;11135;54.192;15.670;2024-03-23T07:26:34;14.13;;;3.60;;
21941;SDS011;11135;54.192;15.670;2024-03-23T07:29:56;13.88;;;2.50;;
21941;SDS011;11135;54.192;15.670;2024-03-23T07:33:17;19.77;;;4.00;;
21941;SDS011;11135;54.192;15.670;2024-03-23T07:36:39;10.60;;;2.67;;
21941;SDS011;11135;54.192;15.670;2024-03-23T07:40:01;15.18;;;2.97;;
21941;SDS011;11135;54.192;15.670;2024-03-23T07:43:25;13.13;;;2.25;;
21941;SDS011;11135;54.192;15.670;2024-03-23T07:46:47;13.80;;;3.13;;
21941;SDS011;11135;54.192;15.670;2024-03-23T07:50:09;16.77;;;2.57;;
21941;SDS011;11135;54.192;15.670;2024-03-23T07:53:31;17.58;;;3.42;;
21941;SDS011;11135;54.192;15.670;2024-03-23T07:56:53;18.63;;;3.83;;
21941;SDS011;11135;54.192;15.670;2024-03-23T08:00:18;15.80;;;3.00;;
21941;SDS011;11135;54.192;15.670;2024-03-23T08:03:40;19.92;;;3.30;;
21941;SDS011;11135;54.192;15.670;2024-03-23T08:10:23;15.27;;;2.67;;
21941;SDS011;11135;54.192;15.670;2024-03-23T08:13:45;14.23;;;3.17;;
21941;SDS011;11135;54.192;15.670;2024-03-23T08:17:10;17.83;;;4.03;;
21941;SDS011;11135;54.192;15.670;2024-03-23T08:20:32;17.83;;;3.88;;
21941;SDS011;11135;54.192;15.670;2024-03-23T08:23:53;19.83;;;4.45;;
21941;SDS011;11135;54.192;15.670;2024-03-23T08:27:15;14.97;;;2.63;;
21941;SDS011;11135;54.192;15.670;2024-03-23T08:30:37;13.30;;;3.35;;
21941;SDS011;11135;54.192;15.670;2024-03-23T08:34:01;17.10;;;3.20;;
21941;SDS011;11135;54.192;15.670;2024-03-23T08:37:23;21.70;;;3.42;;
21941;SDS011;11135;54.192;15.670;2024-03-23T08:40:45;18.52;;;2.72;;
21941;SDS011;11135;54.192;15.670;2024-03-23T08:44:07;14.23;;;2.37;;
21941;SDS011;11135;54.192;15.670;2024-03-23T08:47:28;18.05;;;3.60;;
21941;SDS011;11135;54.192;15.670;2024-03-23T08:51:00;13.75;;;3.08;;
21941;SDS011;11135;54.192;15.670;2024-03-23T08:54:22;12.90;;;2.93;;
21941;SDS011;11135;54.192;15.670;2024-03-23T08:57:44;19.58;;;3.13;;
21941;SDS011;11135;54.192;15.670;2024-03-23T09:01:06;18.30;;;3.65;;
21941;SDS011;11135;54.192;15.670;2024-03-23T09:04:28;19.02;;;3.83;;
21941;SDS011;11135;54.192;15.670;2024-03-23T09:07:53;19.48;;;4.40;;
21941;SDS011;11135;54.192;15.670;2024-03-23T09:11:15;14.50;;;3.45;;
21941;SDS011;11135;54.192;15.670;2024-03-23T09:14:38;19.05;;;3.22;;
21941;SDS011;11135;54.192;15.670;2024-03-23T09:18:00;20.65;;;3.60;;
21941;SDS011;11135;54.192;15.670;2024-03-23T09:21:22;20.55;;;3.85;;
21941;SDS011;11135;54.192;15.670;2024-03-23T09:24:47;16.88;;;3.97;;
21941;SDS011;11135;54.192;15.670;2024-03-23T09:28:09;19.55;;;4.15;;
21941;SDS011;11135;54.192;15.670;2024-03-23T09:31:31;17.87;;;3.17;;
21941;SDS011;11135;54.192;15.670;2024-03-23T09:34:53;14.45;;;3.03;;
21941;SDS011;11135;54.192;15.670;2024-03-23T09:38:14;21.95;;;3.15;;
21941;SDS011;11135;54.192;15.670;2024-03-23T09:41:39;22.50;;;4.07;;
21941;SDS011;11135;54.192;15.670;2024-03-23T09:45:00;22.63;;;3.53;;
21941;SDS011;11135;54.192;15.670;2024-03-23T09:48:22;18.33;;;3.20;;
21941;SDS011;11135;54.192;15.670;2024-03-23T09:51:45;15.85;;;3.22;;
21941;SDS011;11135;54.192;15.670;2024-03-23T09:55:06;16.35;;;2.65;;
21941;SDS011;11135;54.192;15.670;2024-03-23T09:58:32;15.88;;;3.03;;
21941;SDS011;11135;54.192;15.670;2024-03-23T10:01:54;17.48;;;3.05;;
21941;SDS011;11135;54.192;15.670;2024-03-23T10:05:19;20.10;;;3.53;;
21941;SDS011;11135;54.192;15.670;2024-03-23T10:08:41;20.48;;;3.40;;
21941;SDS011;11135;54.192;15.670;2024-03-23T10:12:07;14.02;;;3.50;;
21941;SDS011;11135;54.192;15.670;2024-03-23T10:15:33;19.73;;;3.45;;
21941;SDS011;11135;54.192;15.670;2024-03-23T10:18:55;16.10;;;3.58;;
21941;SDS011;11135;54.192;15.670;2024-03-23T10:22:18;19.87;;;3.90;;
21941;SDS011;11135;54.192;15.670;2024-03-23T10:25:39;21.48;;;4.35;;
21941;SDS011;11135;54.192;15.670;2024-03-23T10:29:01;18.70;;;3.23;;
21941;SDS011;11135;54.192;15.670;2024-03-23T10:32:26;21.53;;;4.43;;
21941;SDS011;11135;54.192;15.670;2024-03-23T10:35:47;18.73;;;4.45;;
21941;SDS011;11135;54.192;15.670;2024-03-23T10:39:10;19.63;;;4.40;;
21941;SDS011;11135;54.192;15.670;2024-03-23T10:42:32;14.57;;;3.03;;
21941;SDS011;11135;54.192;15.670;2024-03-23T10:45:54;25.00;;;4.38;;
21941;SDS011;11135;54.192;15.670;2024-03-23T10:49:19;22.90;;;5.00;;
21941;SDS011;11135;54.192;15.670;2024-03-23T10:52:41;17.20;;;4.07;;
21941;SDS011;11135;54.192;15.670;2024-03-23T10:56:07;10.27;;;3.70;;
21941;SDS011;11135;54.192;15.670;2024-03-23T10:59:29;15.43;;;2.95;;
21941;SDS011;11135;54.192;15.670;2024-03-23T11:02:51;20.60;;;4.63;;
21941;SDS011;11135;54.192;15.670;2024-03-23T11:06:33;16.07;;;3.63;;
21941;SDS011;11135;54.192;15.670;2024-03-23T11:09:55;20.15;;;4.72;;
21941;SDS011;11135;54.192;15.670;2024-03-23T11:13:21;18.40;;;4.50;;
21941;SDS011;11135;54.192;15.670;2024-03-23T11:16:43;21.98;;;4.82;;
21941;SDS011;11135;54.192;15.670;2024-03-23T11:20:06;20.23;;;5.20;;
21941;SDS011;11135;54.192;15.670;2024-03-23T11:23:30;18.73;;;4.20;;
21941;SDS011;11135;54.192;15.670;2024-03-23T11:26:52;19.83;;;5.05;;
21941;SDS011;11135;54.192;15.670;2024-03-23T11:30:15;13.77;;;3.53;;
21941;SDS011;11135;54.192;15.670;2024-03-23T11:33:37;24.50;;;4.55;;
21941;SDS011;11135;54.192;15.670;2024-03-23T11:37:03;18.92;;;3.95;;
21941;SDS011;11135;54.192;15.670;2024-03-23T11:40:29;22.10;;;4.88;;
21941;SDS011;11135;54.192;15.670;2024-03-23T11:43:51;15.75;;;4.03;;
21941;SDS011;11135;54.192;15.670;2024-03-23T11:47:13;21.83;;;4.20;;
21941;SDS011;11135;54.192;15.670;2024-03-23T11:50:36;20.50;;;4.03;;
21941;SDS011;11135;54.192;15.670;2024-03-23T11:54:07;17.08;;;3.72;;
21941;SDS011;11135;54.192;15.670;2024-03-23T11:57:31;13.35;;;3.25;;
21941;SDS011;11135;54.192;15.670;2024-03-23T12:00:54;15.75;;;3.53;;
21941;SDS011;11135;54.192;15.670;2024-03-23T12:04:24;23.98;;;4.47;;
21941;SDS011;11135;54.192;15.670;2024-03-23T12:07:46;15.40;;;3.38;;
21941;SDS011;11135;54.192;15.670;2024-03-23T12:11:08;16.70;;;3.70;;
21941;SDS011;11135;54.192;15.670;2024-03-23T12:17:55;13.68;;;3.63;;
21941;SDS011;11135;54.192;15.670;2024-03-23T12:21:27;16.48;;;3.65;;
21941;SDS011;11135;54.192;15.670;2024-03-23T12:24:49;18.37;;;3.97;;
21941;SDS011;11135;54.192;15.670;2024-03-23T12:28:10;16.70;;;3.42;;
21941;SDS011;11135;54.192;15.670;2024-03-23T12:31:32;21.50;;;5.10;;
21941;SDS011;11135;54.192;15.670;2024-03-23T12:34:56;23.38;;;4.55;;
21941;SDS011;11135;54.192;15.670;2024-03-23T12:38:18;19.42;;;3.47;;
21941;SDS011;11135;54.192;15.670;2024-03-23T12:41:40;13.52;;;3.55;;
21941;SDS011;11135;54.192;15.670;2024-03-23T12:45:02;21.00;;;4.87;;
21941;SDS011;11135;54.192;15.670;2024-03-23T12:48:24;16.92;;;3.50;;
21941;SDS011;11135;54.192;15.670;2024-03-23T12:51:53;15.47;;;3.70;;
21941;SDS011;11135;54.192;15.670;2024-03-23T12:55:15;20.83;;;3.53;;
21941;SDS011;11135;54.192;15.670;2024-03-23T12:58:37;16.60;;;4.40;;
21941;SDS011;11135;54.192;15.670;2024-03-23T13:01:59;15.77;;;2.87;;
21941;SDS011;11135;54.192;15.670;2024-03-23T13:05:21;16.33;;;3.30;;
21941;SDS011;11135;54.192;15.670;2024-03-23T13:08:46;20.10;;;3.23;;
21941;SDS011;11135;54.192;15.670;2024-03-23T13:12:08;19.42;;;3.58;;
21941;SDS011;11135;54.192;15.670;2024-03-23T13:15:30;12.90;;;2.25;;
21941;SDS011;11135;54.192;15.670;2024-03-23T13:18:52;14.27;;;3.27;;
21941;SDS011;11135;54.192;15.670;2024-03-23T13:22:14;23.80;;;2.93;;
21941;SDS011;11135;54.192;15.670;2024-03-23T13:25:39;14.00;;;2.90;;
21941;SDS011;11135;54.192;15.670;2024-03-23T13:29:00;15.02;;;3.33;;
21941;SDS011;11135;54.192;15.670;2024-03-23T13:32:22;16.47;;;3.50;;
21941;SDS011;11135;54.192;15.670;2024-03-23T13:35:50;22.00;;;3.67;;
21941;SDS011;11135;54.192;15.670;2024-03-23T13:39:12;12.75;;;2.45;;
21941;SDS011;11135;54.192;15.670;2024-03-23T13:42:36;20.88;;;2.70;;
21941;SDS011;11135;54.192;15.670;2024-03-23T13:45:58;19.25;;;3.55;;
21941;SDS011;11135;54.192;15.670;2024-03-23T13:49:24;9.02;;;2.13;;
21941;SDS011;11135;54.192;15.670;2024-03-23T13:52:46;16.45;;;3.17;;
21941;SDS011;11135;54.192;15.670;2024-03-23T13:56:08;14.73;;;2.70;;
21941;SDS011;11135;54.192;15.670;2024-03-23T13:59:32;13.33;;;2.80;;
21941;SDS011;11135;54.192;15.670;2024-03-23T14:02:54;14.57;;;2.60;;
21941;SDS011;11135;54.192;15.670;2024-03-23T14:06:16;15.07;;;2.80;;
21941;SDS011;11135;54.192;15.670;2024-03-23T14:09:38;8.87;;;2.60;;
21941;SDS011;11135;54.192;15.670;2024-03-23T14:12:59;12.52;;;2.97;;
21941;SDS011;11135;54.192;15.670;2024-03-23T14:16:24;14.93;;;2.83;;
21941;SDS011;11135;54.192;15.670;2024-03-23T14:19:46;12.63;;;2.67;;
21941;SDS011;11135;54.192;15.670;2024-03-23T14:23:07;14.40;;;2.03;;
21941;SDS011;11135;54.192;15.670;2024-03-23T14:26:29;17.27;;;2.90;;
21941;SDS011;11135;54.192;15.670;2024-03-23T14:29:51;7.67;;;2.50;;
21941;SDS011;11135;54.192;15.670;2024-03-23T14:33:15;13.63;;;2.15;;
21941;SDS011;11135;54.192;15.670;2024-03-23T14:36:37;12.07;;;2.42;;
21941;SDS011;11135;54.192;15.670;2024-03-23T14:39:59;12.63;;;2.63;;
21941;SDS011;11135;54.192;15.670;2024-03-23T14:43:21;13.13;;;2.60;;
21941;SDS011;11135;54.192;15.670;2024-03-23T14:46:43;11.83;;;2.90;;
21941;SDS011;11135;54.192;15.670;2024-03-23T14:50:07;11.55;;;3.30;;
21941;SDS011;11135;54.192;15.670;2024-03-23T14:53:30;13.02;;;2.58;;
21941;SDS011;11135;54.192;15.670;2024-03-23T14:56:52;16.77;;;3.13;;
21941;SDS011;11135;54.192;15.670;2024-03-23T15:00:13;9.70;;;3.67;;
21941;SDS011;11135;54.192;15.670;2024-03-23T15:03:35;13.25;;;2.67;;
21941;SDS011;11135;54.192;15.670;2024-03-23T15:07:00;13.97;;;3.50;;
21941;SDS011;11135;54.192;15.670;2024-03-23T15:10:22;13.27;;;2.60;;
21941;SDS011;11135;54.192;15.670;2024-03-23T15:13:44;11.13;;;2.85;;
21941;SDS011;11135;54.192;15.670;2024-03-23T15:17:06;11.77;;;3.00;;
21941;SDS011;11135;54.192;15.670;2024-03-23T15:20:27;11.30;;;3.45;;
21941;SDS011;11135;54.192;15.670;2024-03-23T15:23:52;12.88;;;2.58;;
21941;SDS011;11135;54.192;15.670;2024-03-23T15:27:14;10.95;;;2.25;;
21941;SDS011;11135;54.192;15.670;2024-03-23T15:30:35;11.10;;;2.17;;
21941;SDS011;11135;54.192;15.670;2024-03-23T15:33:57;9.25;;;2.30;;
21941;SDS011;11135;54.192;15.670;2024-03-23T15:37:20;8.82;;;2.53;;
21941;SDS011;11135;54.192;15.670;2024-03-23T15:40:44;11.70;;;2.72;;
21941;SDS011;11135;54.192;15.670;2024-03-23T15:44:12;12.85;;;2.38;;
21941;SDS011;11135;54.192;15.670;2024-03-23T15:47:34;11.65;;;2.65;;
21941;SDS011;11135;54.192;15.670;2024-03-23T15:50:56;9.57;;;2.27;;
21941;SDS011;11135;54.192;15.670;2024-03-23T15:57:43;8.32;;;2.20;;
21941;SDS011;11135;54.192;15.670;2024-03-23T16:01:06;16.77;;;2.70;;
21941;SDS011;11135;54.192;15.670;2024-03-23T16:04:28;8.65;;;2.20;;
21941;SDS011;11135;54.192;15.670;2024-03-23T16:07:50;15.48;;;2.80;;
21941;SDS011;11135;54.192;15.670;2024-03-23T16:14:37;14.15;;;3.15;;
21941;SDS011;11135;54.192;15.670;2024-03-23T16:18:00;10.38;;;2.67;;
21941;SDS011;11135;54.192;15.670;2024-03-23T16:21:22;11.35;;;2.35;;
21941;SDS011;11135;54.192;15.670;2024-03-23T16:24:44;10.65;;;2.42;;
21941;SDS011;11135;54.192;15.670;2024-03-23T16:28:06;10.57;;;3.00;;
21941;SDS011;11135;54.192;15.670;2024-03-23T16:31:31;15.00;;;2.30;;
21941;SDS011;11135;54.192;15.670;2024-03-23T16:34:53;8.77;;;2.15;;
21941;SDS011;11135;54.192;15.670;2024-03-23T16:38:15;7.37;;;2.70;;
21941;SDS011;11135;54.192;15.670;2024-03-23T16:41:37;9.57;;;2.30;;
21941;SDS011;11135;54.192;15.670;2024-03-23T16:44:59;6.50;;;1.97;;
21941;SDS011;11135;54.192;15.670;2024-03-23T16:48:24;10.73;;;2.47;;
21941;SDS011;11135;54.192;15.670;2024-03-23T16:51:46;11.02;;;2.38;;
21941;SDS011;11135;54.192;15.670;2024-03-23T16:55:08;12.73;;;2.30;;
21941;SDS011;11135;54.192;15.670;2024-03-23T16:58:31;4.97;;;2.03;;
21941;SDS011;11135;54.192;15.670;2024-03-23T17:01:54;5.65;;;1.40;;
21941;SDS011;11135;54.192;15.670;2024-03-23T17:05:18;4.10;;;1.30;;
21941;SDS011;11135;54.192;15.670;2024-03-23T17:08:40;4.70;;;1.48;;
21941;SDS011;11135;54.192;15.670;2024-03-23T17:12:02;3.40;;;1.20;;
21941;SDS011;11135;54.192;15.670;2024-03-23T17:15:24;4.53;;;1.77;;
21941;SDS011;11135;54.192;15.670;2024-03-23T17:18:46;8.45;;;2.03;;
21941;SDS011;11135;54.192;15.670;2024-03-23T17:22:11;7.88;;;1.30;;
21941;SDS011;11135;54.192;15.670;2024-03-23T17:25:33;2.33;;;0.90;;
21941;SDS011;11135;54.192;15.670;2024-03-23T17:28:55;4.40;;;1.17;;
21941;SDS011;11135;54.192;15.670;2024-03-23T17:32:17;5.70;;;1.45;;
21941;SDS011;11135;54.192;15.670;2024-03-23T17:35:39;6.47;;;1.38;;
21941;SDS011;11135;54.192;15.670;2024-03-23T17:39:03;3.33;;;1.47;;
21941;SDS011;11135;54.192;15.670;2024-03-23T17:42:25;5.47;;;1.45;;
21941;SDS011;11135;54.192;15.670;2024-03-23T17:45:47;4.67;;;1.60;;
21941;SDS011;11135;54.192;15.670;2024-03-23T17:49:09;4.63;;;1.70;;
21941;SDS011;11135;54.192;15.670;2024-03-23T17:52:31;5.82;;;1.95;;
21941;SDS011;11135;54.192;15.670;2024-03-23T17:55:55;5.32;;;1.92;;
21941;SDS011;11135;54.192;15.670;2024-03-23T17:59:17;6.22;;;1.92;;
21941;SDS011;11135;54.192;15.670;2024-03-23T18:02:41;5.15;;;1.38;;
21941;SDS011;11135;54.192;15.670;2024-03-23T18:06:04;6.85;;;1.75;;
21941;SDS011;11135;54.192;15.670;2024-03-23T18:09:25;7.95;;;1.98;;
21941;SDS011;11135;54.192;15.670;2024-03-23T18:12:50;6.43;;;2.10;;
21941;SDS011;11135;54.192;15.670;2024-03-23T18:16:12;5.57;;;1.90;;
21941;SDS011;11135;54.192;15.670;2024-03-23T18:19:34;4.32;;;1.80;;
21941;SDS011;11135;54.192;15.670;2024-03-23T18:22:56;4.18;;;2.20;;
21941;SDS011;11135;54.192;15.670;2024-03-23T18:26:17;3.90;;;1.75;;
21941;SDS011;11135;54.192;15.670;2024-03-23T18:29:42;6.18;;;2.17;;
21941;SDS011;11135;54.192;15.670;2024-03-23T18:33:04;5.18;;;2.58;;
21941;SDS011;11135;54.192;15.670;2024-03-23T18:36:26;8.93;;;3.08;;
21941;SDS011;11135;54.192;15.670;2024-03-23T18:39:48;7.03;;;2.30;;
21941;SDS011;11135;54.192;15.670;2024-03-23T18:43:09;6.25;;;2.42;;
21941;SDS011;11135;54.192;15.670;2024-03-23T18:46:34;5.38;;;2.22;;
21941;SDS011;11135;54.192;15.670;2024-03-23T18:49:56;4.05;;;1.55;;
21941;SDS011;11135;54.192;15.670;2024-03-23T18:53:18;6.35;;;1.95;;
21941;SDS011;11135;54.192;15.670;2024-03-23T18:56:40;6.10;;;1.50;;
21941;SDS011;11135;54.192;15.670;2024-03-23T19:00:02;8.53;;;2.60;;
21941;SDS011;11135;54.192;15.670;2024-03-23T19:03:27;4.25;;;1.80;;
21941;SDS011;11135;54.192;15.670;2024-03-23T19:06:49;7.57;;;1.92;;
21941;SDS011;11135;54.192;15.670;2024-03-23T19:10:11;4.55;;;1.65;;
21941;SDS011;11135;54.192;15.670;2024-03-23T19:13:32;3.75;;;2.03;;
21941;SDS011;11135;54.192;15.670;2024-03-23T19:16:54;3.92;;;1.67;;
21941;SDS011;11135;54.192;15.670;2024-03-23T19:20:19;7.13;;;2.90;;
21941;SDS011;11135;54.192;15.670;2024-03-23T19:23:40;6.97;;;2.42;;
21941;SDS011;11135;54.192;15.670;2024-03-23T19:27:03;5.95;;;2.70;;
21941;SDS011;11135;54.192;15.670;2024-03-23T19:30:24;6.43;;;2.78;;
21941;SDS011;11135;54.192;15.670;2024-03-23T19:33:46;7.10;;;2.30;;
21941;SDS011;11135;54.192;15.670;2024-03-23T19:37:11;3.95;;;1.38;;
21941;SDS011;11135;54.192;15.670;2024-03-23T19:40:33;4.80;;;2.05;;
21941;SDS011;11135;54.192;15.670;2024-03-23T19:43:55;5.75;;;2.15;;
21941;SDS011;11135;54.192;15.670;2024-03-23T19:47:17;5.63;;;2.13;;
21941;SDS011;11135;54.192;15.670;2024-03-23T19:50:39;4.68;;;2.00;;
21941;SDS011;11135;54.192;15.670;2024-03-23T19:54:03;7.37;;;2.40;;
21941;SDS011;11135;54.192;15.670;2024-03-23T19:57:25;8.18;;;2.42;;
21941;SDS011;11135;54.192;15.670;2024-03-23T20:00:47;6.30;;;2.30;;
21941;SDS011;11135;54.192;15.670;2024-03-23T20:04:08;6.45;;;2.85;;
21941;SDS011;11135;54.192;15.670;2024-03-23T20:07:30;4.50;;;2.42;;
21941;SDS011;11135;54.192;15.670;2024-03-23T20:10:54;6.80;;;3.00;;
21941;SDS011;11135;54.192;15.670;2024-03-23T20:14:17;9.48;;;3.25;;
21941;SDS011;11135;54.192;15.670;2024-03-23T20:17:38;7.75;;;4.10;;
21941;SDS011;11135;54.192;15.670;2024-03-23T20:21:00;9.10;;;3.30;;
21941;SDS011;11135;54.192;15.670;2024-03-23T20:24:22;7.30;;;3.10;;
21941;SDS011;11135;54.192;15.670;2024-03-23T20:27:47;10.20;;;3.50;;
21941;SDS011;11135;54.192;15.670;2024-03-23T20:31:09;7.35;;;2.38;;
21941;SDS011;11135;54.192;15.670;2024-03-23T20:34:31;6.43;;;3.28;;
21941;SDS011;11135;54.192;15.670;2024-03-23T20:37:52;7.88;;;2.80;;
21941;SDS011;11135;54.192;15.670;2024-03-23T20:41:14;7.20;;;3.22;;
21941;SDS011;11135;54.192;15.670;2024-03-23T20:44:39;4.50;;;2.53;;
21941;SDS011;11135;54.192;15.670;2024-03-23T20:48:01;8.07;;;2.70;;
21941;SDS011;11135;54.192;15.670;2024-03-23T20:51:23;6.20;;;2.72;;
21941;SDS011;11135;54.192;15.670;2024-03-23T20:54:45;4.25;;;2.47;;
21941;SDS011;11135;54.192;15.670;2024-03-23T20:58:09;4.70;;;1.90;;